sensor_id;sensor_type;location;lat;lon;timestamp;P1;durP1;ratioP1;P2;durP2;ratioP2
28653;SDS011;24320;56.980;24.336;2022-10-23T18:45:11;11.40;;;5.63;;
28653;SDS011;24320;56.980;24.336;2022-10-23T18:47:45;12.63;;;5.32;;
28653;SDS011;24320;56.980;24.336;2022-10-23T18:50:13;12.90;;;5.95;;
28653;SDS011;24320;56.980;24.336;2022-10-23T18:52:40;9.00;;;5.25;;
28653;SDS011;24320;56.980;24.336;2022-10-23T18:55:07;12.55;;;6.03;;
28653;SDS011;24320;56.980;24.336;2022-10-23T18:57:35;9.20;;;5.28;;
28653;SDS011;24320;56.980;24.336;2022-10-23T19:00:04;11.60;;;6.25;;
28653;SDS011;24320;56.980;24.336;2022-10-23T19:02:33;10.63;;;6.07;;
28653;SDS011;24320;56.980;24.336;2022-10-23T19:05:01;13.18;;;5.45;;
28653;SDS011;24320;56.980;24.336;2022-10-23T19:07:29;8.45;;;4.22;;
28653;SDS011;24320;56.980;24.336;2022-10-23T19:09:56;10.80;;;5.13;;
28653;SDS011;24320;56.980;24.336;2022-10-23T19:12:23;7.63;;;4.15;;
28653;SDS011;24320;56.980;24.336;2022-10-23T19:14:50;8.10;;;4.80;;
28653;SDS011;24320;56.980;24.336;2022-10-23T19:17:27;10.93;;;5.65;;
28653;SDS011;24320;56.980;24.336;2022-10-23T19:20:10;8.27;;;4.57;;
28653;SDS011;24320;56.980;24.336;2022-10-23T19:22:40;8.68;;;4.03;;
28653;SDS011;24320;56.980;24.336;2022-10-23T19:25:11;6.85;;;4.00;;
28653;SDS011;24320;56.980;24.336;2022-10-23T19:27:40;13.35;;;4.50;;
28653;SDS011;24320;56.980;24.336;2022-10-23T19:30:10;8.20;;;4.78;;
28653;SDS011;24320;56.980;24.336;2022-10-23T19:32:40;8.98;;;4.90;;
28653;SDS011;24320;56.980;24.336;2022-10-23T19:35:09;9.48;;;4.55;;
28653;SDS011;24320;56.980;24.336;2022-10-23T19:37:38;7.22;;;4.07;;
28653;SDS011;24320;56.980;24.336;2022-10-23T19:40:10;8.38;;;4.63;;
28653;SDS011;24320;56.980;24.336;2022-10-23T19:42:38;7.95;;;4.13;;
28653;SDS011;24320;56.980;24.336;2022-10-23T19:45:08;7.40;;;4.38;;
28653;SDS011;24320;56.980;24.336;2022-10-23T19:47:38;8.20;;;4.75;;
28653;SDS011;24320;56.980;24.336;2022-10-23T19:50:05;8.18;;;4.88;;
28653;SDS011;24320;56.980;24.336;2022-10-23T19:52:34;10.13;;;5.10;;
28653;SDS011;24320;56.980;24.336;2022-10-23T19:55:02;10.07;;;5.13;;
28653;SDS011;24320;56.980;24.336;2022-10-23T19:57:31;10.88;;;5.05;;
28653;SDS011;24320;56.980;24.336;2022-10-23T20:00:04;10.15;;;5.15;;
28653;SDS011;24320;56.980;24.336;2022-10-23T20:02:33;10.52;;;5.53;;
28653;SDS011;24320;56.980;24.336;2022-10-23T20:05:04;11.18;;;4.78;;
28653;SDS011;24320;56.980;24.336;2022-10-23T20:07:32;9.82;;;4.82;;
28653;SDS011;24320;56.980;24.336;2022-10-23T20:09:59;8.70;;;4.95;;
28653;SDS011;24320;56.980;24.336;2022-10-23T20:12:27;9.27;;;4.90;;
28653;SDS011;24320;56.980;24.336;2022-10-23T20:14:54;11.43;;;5.43;;
28653;SDS011;24320;56.980;24.336;2022-10-23T20:17:22;9.52;;;4.82;;
28653;SDS011;24320;56.980;24.336;2022-10-23T20:19:49;8.43;;;4.13;;
28653;SDS011;24320;56.980;24.336;2022-10-23T20:22:18;11.88;;;4.50;;
28653;SDS011;24320;56.980;24.336;2022-10-23T20:24:45;9.93;;;4.80;;
28653;SDS011;24320;56.980;24.336;2022-10-23T20:27:12;10.48;;;4.82;;
28653;SDS011;24320;56.980;24.336;2022-10-23T20:29:40;12.18;;;5.55;;
28653;SDS011;24320;56.980;24.336;2022-10-23T20:32:07;11.27;;;5.28;;
28653;SDS011;24320;56.980;24.336;2022-10-23T20:34:35;10.55;;;5.95;;
28653;SDS011;24320;56.980;24.336;2022-10-23T20:37:02;11.98;;;5.25;;
28653;SDS011;24320;56.980;24.336;2022-10-23T20:39:29;6.70;;;3.47;;
28653;SDS011;24320;56.980;24.336;2022-10-23T20:41:59;5.75;;;3.70;;
28653;SDS011;24320;56.980;24.336;2022-10-23T20:44:26;5.03;;;3.25;;
28653;SDS011;24320;56.980;24.336;2022-10-23T20:46:54;3.30;;;1.92;;
28653;SDS011;24320;56.980;24.336;2022-10-23T20:49:22;5.05;;;3.15;;
28653;SDS011;24320;56.980;24.336;2022-10-23T20:51:50;4.72;;;2.15;;
28653;SDS011;24320;56.980;24.336;2022-10-23T20:54:21;4.63;;;2.78;;
28653;SDS011;24320;56.980;24.336;2022-10-23T20:56:49;5.72;;;2.78;;
28653;SDS011;24320;56.980;24.336;2022-10-23T20:59:17;5.95;;;2.50;;
28653;SDS011;24320;56.980;24.336;2022-10-23T21:01:45;6.25;;;2.55;;
28653;SDS011;24320;56.980;24.336;2022-10-23T21:04:19;4.55;;;2.22;;
28653;SDS011;24320;56.980;24.336;2022-10-23T21:06:51;4.28;;;2.40;;
28653;SDS011;24320;56.980;24.336;2022-10-23T21:09:35;8.40;;;2.40;;
28653;SDS011;24320;56.980;24.336;2022-10-23T21:12:03;4.40;;;2.22;;
28653;SDS011;24320;56.980;24.336;2022-10-23T21:14:32;5.82;;;3.00;;
28653;SDS011;24320;56.980;24.336;2022-10-23T21:16:59;3.97;;;2.63;;
28653;SDS011;24320;56.980;24.336;2022-10-23T21:19:26;4.20;;;2.20;;
28653;SDS011;24320;56.980;24.336;2022-10-23T21:21:54;5.57;;;2.58;;
28653;SDS011;24320;56.980;24.336;2022-10-23T21:24:21;4.40;;;2.50;;
28653;SDS011;24320;56.980;24.336;2022-10-23T21:26:49;7.82;;;2.78;;
28653;SDS011;24320;56.980;24.336;2022-10-23T21:29:16;6.15;;;2.17;;
28653;SDS011;24320;56.980;24.336;2022-10-23T22:34:33;12.23;;;5.50;;
28653;SDS011;24320;56.980;24.336;2022-10-23T22:37:21;8.95;;;4.63;;
28653;SDS011;24320;56.980;24.336;2022-10-23T22:39:51;12.02;;;5.50;;
28653;SDS011;24320;56.980;24.336;2022-10-23T22:42:18;13.77;;;5.78;;
28653;SDS011;24320;56.980;24.336;2022-10-23T22:44:45;14.85;;;5.75;;
28653;SDS011;24320;56.980;24.336;2022-10-23T22:47:12;10.73;;;5.45;;
28653;SDS011;24320;56.980;24.336;2022-10-23T22:49:39;9.68;;;4.75;;
28653;SDS011;24320;56.980;24.336;2022-10-23T22:52:06;10.40;;;4.90;;
28653;SDS011;24320;56.980;24.336;2022-10-23T22:54:34;9.90;;;4.13;;
28653;SDS011;24320;56.980;24.336;2022-10-23T22:57:01;6.03;;;3.70;;
28653;SDS011;24320;56.980;24.336;2022-10-23T22:59:28;9.30;;;3.50;;
28653;SDS011;24320;56.980;24.336;2022-10-23T23:01:55;5.28;;;3.63;;
28653;SDS011;24320;56.980;24.336;2022-10-23T23:04:22;10.48;;;5.05;;
28653;SDS011;24320;56.980;24.336;2022-10-23T23:07:06;9.80;;;4.65;;
28653;SDS011;24320;56.980;24.336;2022-10-23T23:09:34;10.40;;;4.53;;
28653;SDS011;24320;56.980;24.336;2022-10-23T23:12:05;9.10;;;4.60;;
28653;SDS011;24320;56.980;24.336;2022-10-23T23:14:34;10.73;;;5.38;;
28653;SDS011;24320;56.980;24.336;2022-10-23T23:17:01;10.75;;;5.07;;
28653;SDS011;24320;56.980;24.336;2022-10-23T23:19:29;8.63;;;4.18;;
28653;SDS011;24320;56.980;24.336;2022-10-23T23:21:56;8.73;;;3.97;;
28653;SDS011;24320;56.980;24.336;2022-10-23T23:24:25;9.18;;;4.22;;
28653;SDS011;24320;56.980;24.336;2022-10-23T23:26:52;8.25;;;4.28;;
28653;SDS011;24320;56.980;24.336;2022-10-23T23:29:19;9.27;;;4.72;;
28653;SDS011;24320;56.980;24.336;2022-10-23T23:34:26;7.85;;;4.43;;
28653;SDS011;24320;56.980;24.336;2022-10-23T23:36:53;10.43;;;5.32;;
28653;SDS011;24320;56.980;24.336;2022-10-23T23:39:20;14.43;;;5.28;;
28653;SDS011;24320;56.980;24.336;2022-10-23T23:41:47;13.40;;;6.47;;
28653;SDS011;24320;56.980;24.336;2022-10-23T23:44:14;8.90;;;4.43;;
28653;SDS011;24320;56.980;24.336;2022-10-23T23:46:41;20.73;;;8.77;;
28653;SDS011;24320;56.980;24.336;2022-10-23T23:49:08;17.65;;;8.57;;
28653;SDS011;24320;56.980;24.336;2022-10-23T23:51:35;13.20;;;6.22;;
28653;SDS011;24320;56.980;24.336;2022-10-23T23:54:02;12.38;;;5.28;;
28653;SDS011;24320;56.980;24.336;2022-10-23T23:56:29;9.90;;;5.30;;
28653;SDS011;24320;56.980;24.336;2022-10-23T23:58:57;9.70;;;5.22;;
